sensor_id;sensor_type;location;lat;lon;timestamp;P1;durP1;ratioP1;P2;durP2;ratioP2
69551;SDS011;63774;45.292;11.784;2022-11-15T00:01:47;7.20;;;5.20;;
69551;SDS011;63774;45.292;11.784;2022-11-15T00:04:12;8.10;;;5.10;;
69551;SDS011;63774;45.292;11.784;2022-11-15T00:06:38;9.00;;;5.10;;
69551;SDS011;63774;45.292;11.784;2022-11-15T00:09:03;7.30;;;5.00;;
69551;SDS011;63774;45.292;11.784;2022-11-15T00:11:28;6.70;;;4.90;;
69551;SDS011;63774;45.292;11.784;2022-11-15T00:13:55;7.40;;;5.00;;
69551;SDS011;63774;45.292;11.784;2022-11-15T00:16:21;7.30;;;4.80;;
69551;SDS011;63774;45.292;11.784;2022-11-15T00:18:46;7.50;;;5.00;;
69551;SDS011;63774;45.292;11.784;2022-11-15T00:21:12;7.20;;;4.60;;
69551;SDS011;63774;45.292;11.784;2022-11-15T00:23:39;7.40;;;4.90;;
69551;SDS011;63774;45.292;11.784;2022-11-15T00:26:04;8.80;;;4.90;;
69551;SDS011;63774;45.292;11.784;2022-11-15T00:28:30;7.10;;;5.00;;
69551;SDS011;63774;45.292;11.784;2022-11-15T00:31:00;7.00;;;4.80;;
69551;SDS011;63774;45.292;11.784;2022-11-15T00:33:27;6.60;;;4.40;;
69551;SDS011;63774;45.292;11.784;2022-11-15T00:35:59;8.80;;;5.10;;
69551;SDS011;63774;45.292;11.784;2022-11-15T00:38:33;8.80;;;5.30;;
69551;SDS011;63774;45.292;11.784;2022-11-15T00:40:59;8.30;;;4.80;;
69551;SDS011;63774;45.292;11.784;2022-11-15T00:43:25;7.20;;;4.80;;
69551;SDS011;63774;45.292;11.784;2022-11-15T00:45:51;7.40;;;4.80;;
69551;SDS011;63774;45.292;11.784;2022-11-15T00:48:18;7.60;;;5.10;;
69551;SDS011;63774;45.292;11.784;2022-11-15T00:50:43;6.10;;;4.70;;
69551;SDS011;63774;45.292;11.784;2022-11-15T00:53:09;8.20;;;5.40;;
69551;SDS011;63774;45.292;11.784;2022-11-15T00:55:35;6.80;;;5.00;;
69551;SDS011;63774;45.292;11.784;2022-11-15T00:58:00;7.60;;;5.20;;
69551;SDS011;63774;45.292;11.784;2022-11-15T01:00:26;6.60;;;4.60;;
69551;SDS011;63774;45.292;11.784;2022-11-15T01:02:52;8.00;;;4.90;;
69551;SDS011;63774;45.292;11.784;2022-11-15T01:05:18;8.20;;;5.10;;
69551;SDS011;63774;45.292;11.784;2022-11-15T01:07:43;6.90;;;4.80;;
69551;SDS011;63774;45.292;11.784;2022-11-15T01:10:09;7.50;;;4.90;;
69551;SDS011;63774;45.292;11.784;2022-11-15T01:12:34;6.40;;;4.90;;
69551;SDS011;63774;45.292;11.784;2022-11-15T01:15:00;7.40;;;4.70;;
69551;SDS011;63774;45.292;11.784;2022-11-15T01:17:26;6.80;;;4.80;;
69551;SDS011;63774;45.292;11.784;2022-11-15T01:19:52;7.10;;;4.90;;
69551;SDS011;63774;45.292;11.784;2022-11-15T01:22:17;7.00;;;4.90;;
69551;SDS011;63774;45.292;11.784;2022-11-15T01:24:43;6.80;;;4.80;;
69551;SDS011;63774;45.292;11.784;2022-11-15T01:27:09;7.60;;;5.10;;
69551;SDS011;63774;45.292;11.784;2022-11-15T01:29:34;7.10;;;5.10;;
69551;SDS011;63774;45.292;11.784;2022-11-15T01:32:00;7.40;;;4.70;;
69551;SDS011;63774;45.292;11.784;2022-11-15T01:34:25;7.30;;;4.80;;
69551;SDS011;63774;45.292;11.784;2022-11-15T01:36:50;7.50;;;5.20;;
69551;SDS011;63774;45.292;11.784;2022-11-15T01:39:16;6.70;;;4.90;;
69551;SDS011;63774;45.292;11.784;2022-11-15T01:41:41;7.80;;;5.30;;
69551;SDS011;63774;45.292;11.784;2022-11-15T01:47:21;6.60;;;4.60;;
69551;SDS011;63774;45.292;11.784;2022-11-15T01:52:19;8.60;;;5.20;;
69551;SDS011;63774;45.292;11.784;2022-11-15T01:54:48;8.30;;;5.40;;
69551;SDS011;63774;45.292;11.784;2022-11-15T01:57:18;8.20;;;4.80;;
69551;SDS011;63774;45.292;11.784;2022-11-15T01:59:44;7.20;;;4.90;;
69551;SDS011;63774;45.292;11.784;2022-11-15T02:02:10;7.50;;;5.20;;
69551;SDS011;63774;45.292;11.784;2022-11-15T02:04:41;7.10;;;4.80;;
69551;SDS011;63774;45.292;11.784;2022-11-15T02:07:08;7.20;;;4.90;;
69551;SDS011;63774;45.292;11.784;2022-11-15T02:09:36;7.20;;;5.00;;
69551;SDS011;63774;45.292;11.784;2022-11-15T02:12:03;9.50;;;5.60;;
69551;SDS011;63774;45.292;11.784;2022-11-15T02:14:30;6.90;;;5.00;;
69551;SDS011;63774;45.292;11.784;2022-11-15T02:25:01;7.80;;;5.30;;
69551;SDS011;63774;45.292;11.784;2022-11-15T02:30:55;7.00;;;4.90;;
69551;SDS011;63774;45.292;11.784;2022-11-15T02:40:32;7.10;;;5.00;;
69551;SDS011;63774;45.292;11.784;2022-11-15T02:42:49;7.70;;;5.10;;
69551;SDS011;63774;45.292;11.784;2022-11-15T02:45:43;7.60;;;5.10;;
69551;SDS011;63774;45.292;11.784;2022-11-15T02:48:12;7.70;;;5.10;;
69551;SDS011;63774;45.292;11.784;2022-11-15T02:50:40;8.90;;;5.50;;
69551;SDS011;63774;45.292;11.784;2022-11-15T02:53:07;8.50;;;4.90;;
69551;SDS011;63774;45.292;11.784;2022-11-15T02:55:34;7.60;;;5.10;;
69551;SDS011;63774;45.292;11.784;2022-11-15T02:58:14;7.20;;;4.90;;
69551;SDS011;63774;45.292;11.784;2022-11-15T03:01:17;7.80;;;5.60;;
69551;SDS011;63774;45.292;11.784;2022-11-15T03:06:49;7.50;;;5.20;;
69551;SDS011;63774;45.292;11.784;2022-11-15T03:09:33;7.70;;;5.50;;
69551;SDS011;63774;45.292;11.784;2022-11-15T03:12:28;7.50;;;4.90;;
69551;SDS011;63774;45.292;11.784;2022-11-15T03:15:05;8.40;;;5.30;;
69551;SDS011;63774;45.292;11.784;2022-11-15T03:17:39;7.50;;;5.30;;
69551;SDS011;63774;45.292;11.784;2022-11-15T03:20:08;7.70;;;5.20;;
69551;SDS011;63774;45.292;11.784;2022-11-15T03:22:37;8.70;;;5.60;;
69551;SDS011;63774;45.292;11.784;2022-11-15T03:25:08;8.80;;;5.50;;
69551;SDS011;63774;45.292;11.784;2022-11-15T03:27:40;8.00;;;5.40;;
69551;SDS011;63774;45.292;11.784;2022-11-15T03:30:09;7.70;;;5.40;;
69551;SDS011;63774;45.292;11.784;2022-11-15T03:32:36;6.60;;;4.90;;
69551;SDS011;63774;45.292;11.784;2022-11-15T03:35:11;7.70;;;5.30;;
69551;SDS011;63774;45.292;11.784;2022-11-15T03:37:43;8.10;;;5.40;;
69551;SDS011;63774;45.292;11.784;2022-11-15T03:40:13;7.30;;;5.20;;
69551;SDS011;63774;45.292;11.784;2022-11-15T03:42:42;8.10;;;5.40;;
69551;SDS011;63774;45.292;11.784;2022-11-15T03:45:19;7.60;;;5.20;;
69551;SDS011;63774;45.292;11.784;2022-11-15T03:48:02;7.20;;;4.90;;
69551;SDS011;63774;45.292;11.784;2022-11-15T03:50:32;8.10;;;5.40;;
69551;SDS011;63774;45.292;11.784;2022-11-15T03:52:58;9.10;;;5.50;;
69551;SDS011;63774;45.292;11.784;2022-11-15T03:55:24;8.10;;;5.30;;
69551;SDS011;63774;45.292;11.784;2022-11-15T03:57:51;8.10;;;5.50;;
69551;SDS011;63774;45.292;11.784;2022-11-15T04:00:18;6.70;;;4.90;;
69551;SDS011;63774;45.292;11.784;2022-11-15T04:02:44;7.40;;;5.20;;
69551;SDS011;63774;45.292;11.784;2022-11-15T04:05:10;7.30;;;5.10;;
69551;SDS011;63774;45.292;11.784;2022-11-15T04:07:35;9.20;;;5.60;;
69551;SDS011;63774;45.292;11.784;2022-11-15T04:10:01;7.30;;;5.30;;
69551;SDS011;63774;45.292;11.784;2022-11-15T04:12:27;7.30;;;5.50;;
69551;SDS011;63774;45.292;11.784;2022-11-15T04:15:02;8.10;;;5.50;;
69551;SDS011;63774;45.292;11.784;2022-11-15T04:17:33;7.50;;;5.10;;
69551;SDS011;63774;45.292;11.784;2022-11-15T04:20:03;7.30;;;5.00;;
69551;SDS011;63774;45.292;11.784;2022-11-15T04:22:48;7.60;;;4.90;;
69551;SDS011;63774;45.292;11.784;2022-11-15T04:25:32;8.20;;;5.40;;
69551;SDS011;63774;45.292;11.784;2022-11-15T04:27:57;7.70;;;5.30;;
69551;SDS011;63774;45.292;11.784;2022-11-15T04:30:23;7.20;;;5.00;;
69551;SDS011;63774;45.292;11.784;2022-11-15T04:32:48;7.70;;;5.50;;
69551;SDS011;63774;45.292;11.784;2022-11-15T04:35:14;8.00;;;5.20;;
69551;SDS011;63774;45.292;11.784;2022-11-15T04:37:40;7.20;;;4.80;;
69551;SDS011;63774;45.292;11.784;2022-11-15T04:40:05;7.80;;;4.90;;
69551;SDS011;63774;45.292;11.784;2022-11-15T04:42:32;7.60;;;5.50;;
69551;SDS011;63774;45.292;11.784;2022-11-15T04:44:57;7.40;;;5.70;;
69551;SDS011;63774;45.292;11.784;2022-11-15T04:47:23;7.30;;;5.30;;
69551;SDS011;63774;45.292;11.784;2022-11-15T04:49:48;7.30;;;5.00;;
69551;SDS011;63774;45.292;11.784;2022-11-15T04:52:13;8.00;;;5.70;;
69551;SDS011;63774;45.292;11.784;2022-11-15T04:54:39;8.60;;;5.30;;
69551;SDS011;63774;45.292;11.784;2022-11-15T04:57:07;7.70;;;5.30;;
69551;SDS011;63774;45.292;11.784;2022-11-15T04:59:32;7.80;;;5.30;;
69551;SDS011;63774;45.292;11.784;2022-11-15T05:01:58;6.90;;;5.30;;
69551;SDS011;63774;45.292;11.784;2022-11-15T05:04:23;8.00;;;5.50;;
69551;SDS011;63774;45.292;11.784;2022-11-15T05:06:49;7.70;;;5.10;;
69551;SDS011;63774;45.292;11.784;2022-11-15T05:09:16;7.90;;;5.30;;
69551;SDS011;63774;45.292;11.784;2022-11-15T05:11:43;6.80;;;5.00;;
69551;SDS011;63774;45.292;11.784;2022-11-15T05:14:09;8.30;;;5.40;;
69551;SDS011;63774;45.292;11.784;2022-11-15T05:16:34;10.60;;;6.30;;
69551;SDS011;63774;45.292;11.784;2022-11-15T05:19:00;8.10;;;5.30;;
69551;SDS011;63774;45.292;11.784;2022-11-15T05:21:25;7.80;;;5.40;;
69551;SDS011;63774;45.292;11.784;2022-11-15T05:23:50;9.80;;;5.50;;
69551;SDS011;63774;45.292;11.784;2022-11-15T05:26:17;7.40;;;5.60;;
69551;SDS011;63774;45.292;11.784;2022-11-15T05:28:43;7.20;;;6.00;;
69551;SDS011;63774;45.292;11.784;2022-11-15T05:31:10;7.50;;;5.20;;
69551;SDS011;63774;45.292;11.784;2022-11-15T05:33:38;9.40;;;6.00;;
69551;SDS011;63774;45.292;11.784;2022-11-15T05:36:06;10.60;;;7.20;;
69551;SDS011;63774;45.292;11.784;2022-11-15T05:38:43;10.90;;;7.80;;
69551;SDS011;63774;45.292;11.784;2022-11-15T05:41:09;10.30;;;6.90;;
69551;SDS011;63774;45.292;11.784;2022-11-15T05:43:36;11.50;;;7.80;;
69551;SDS011;63774;45.292;11.784;2022-11-15T05:46:04;9.90;;;7.20;;
69551;SDS011;63774;45.292;11.784;2022-11-15T05:48:30;11.00;;;7.80;;
69551;SDS011;63774;45.292;11.784;2022-11-15T05:50:57;12.60;;;7.70;;
69551;SDS011;63774;45.292;11.784;2022-11-15T05:53:23;10.40;;;7.50;;
69551;SDS011;63774;45.292;11.784;2022-11-15T05:55:50;12.50;;;8.50;;
69551;SDS011;63774;45.292;11.784;2022-11-15T05:58:16;10.20;;;7.50;;
69551;SDS011;63774;45.292;11.784;2022-11-15T06:00:43;10.70;;;7.80;;
69551;SDS011;63774;45.292;11.784;2022-11-15T06:03:08;10.50;;;7.50;;
69551;SDS011;63774;45.292;11.784;2022-11-15T06:05:34;10.20;;;7.50;;
69551;SDS011;63774;45.292;11.784;2022-11-15T06:07:59;12.20;;;7.80;;
69551;SDS011;63774;45.292;11.784;2022-11-15T06:10:25;11.00;;;6.80;;
69551;SDS011;63774;45.292;11.784;2022-11-15T06:13:01;11.30;;;7.60;;
69551;SDS011;63774;45.292;11.784;2022-11-15T06:15:29;10.90;;;7.20;;
69551;SDS011;63774;45.292;11.784;2022-11-15T06:17:56;11.30;;;7.80;;
69551;SDS011;63774;45.292;11.784;2022-11-15T06:20:23;11.20;;;7.60;;
69551;SDS011;63774;45.292;11.784;2022-11-15T06:22:49;10.20;;;7.30;;
69551;SDS011;63774;45.292;11.784;2022-11-15T06:25:14;10.20;;;7.20;;
69551;SDS011;63774;45.292;11.784;2022-11-15T06:27:40;9.70;;;7.00;;
69551;SDS011;63774;45.292;11.784;2022-11-15T06:30:05;9.90;;;6.80;;
69551;SDS011;63774;45.292;11.784;2022-11-15T06:32:31;10.60;;;7.60;;
69551;SDS011;63774;45.292;11.784;2022-11-15T06:34:57;9.60;;;6.70;;
69551;SDS011;63774;45.292;11.784;2022-11-15T06:37:22;10.30;;;7.20;;
69551;SDS011;63774;45.292;11.784;2022-11-15T06:39:47;11.20;;;7.40;;
69551;SDS011;63774;45.292;11.784;2022-11-15T06:42:13;9.40;;;6.90;;
69551;SDS011;63774;45.292;11.784;2022-11-15T06:44:38;9.40;;;6.60;;
69551;SDS011;63774;45.292;11.784;2022-11-15T06:47:04;9.60;;;6.80;;
69551;SDS011;63774;45.292;11.784;2022-11-15T06:49:29;9.50;;;6.70;;
69551;SDS011;63774;45.292;11.784;2022-11-15T06:51:54;10.50;;;6.40;;
69551;SDS011;63774;45.292;11.784;2022-11-15T06:54:20;9.50;;;6.70;;
69551;SDS011;63774;45.292;11.784;2022-11-15T06:56:46;9.30;;;6.20;;
69551;SDS011;63774;45.292;11.784;2022-11-15T06:59:11;9.70;;;6.60;;
69551;SDS011;63774;45.292;11.784;2022-11-15T07:01:36;10.30;;;7.10;;
69551;SDS011;63774;45.292;11.784;2022-11-15T07:04:02;9.10;;;6.60;;
69551;SDS011;63774;45.292;11.784;2022-11-15T07:06:27;10.00;;;6.90;;
69551;SDS011;63774;45.292;11.784;2022-11-15T07:08:53;10.80;;;6.70;;
69551;SDS011;63774;45.292;11.784;2022-11-15T07:11:18;9.10;;;6.30;;
69551;SDS011;63774;45.292;11.784;2022-11-15T07:13:44;8.80;;;6.10;;
69551;SDS011;63774;45.292;11.784;2022-11-15T07:16:09;9.50;;;6.70;;
69551;SDS011;63774;45.292;11.784;2022-11-15T07:18:36;8.40;;;5.90;;
69551;SDS011;63774;45.292;11.784;2022-11-15T07:21:03;9.80;;;6.40;;
69551;SDS011;63774;45.292;11.784;2022-11-15T07:23:30;8.90;;;5.90;;
69551;SDS011;63774;45.292;11.784;2022-11-15T07:25:56;9.50;;;6.10;;
69551;SDS011;63774;45.292;11.784;2022-11-15T07:28:23;9.80;;;6.40;;
69551;SDS011;63774;45.292;11.784;2022-11-15T07:30:50;8.30;;;6.40;;
69551;SDS011;63774;45.292;11.784;2022-11-15T07:33:15;9.70;;;6.20;;
69551;SDS011;63774;45.292;11.784;2022-11-15T07:35:40;9.50;;;6.60;;
69551;SDS011;63774;45.292;11.784;2022-11-15T07:38:07;8.10;;;6.00;;
69551;SDS011;63774;45.292;11.784;2022-11-15T07:40:33;9.40;;;6.30;;
69551;SDS011;63774;45.292;11.784;2022-11-15T07:43:02;8.20;;;5.90;;
69551;SDS011;63774;45.292;11.784;2022-11-15T07:45:29;7.50;;;5.70;;
69551;SDS011;63774;45.292;11.784;2022-11-15T07:47:55;7.40;;;5.80;;
69551;SDS011;63774;45.292;11.784;2022-11-15T07:50:22;9.30;;;6.30;;
69551;SDS011;63774;45.292;11.784;2022-11-15T07:52:53;9.90;;;6.40;;
69551;SDS011;63774;45.292;11.784;2022-11-15T07:55:20;8.50;;;5.90;;
69551;SDS011;63774;45.292;11.784;2022-11-15T07:57:46;8.20;;;5.70;;
69551;SDS011;63774;45.292;11.784;2022-11-15T08:00:11;9.20;;;6.10;;
69551;SDS011;63774;45.292;11.784;2022-11-15T08:02:37;7.60;;;5.50;;
69551;SDS011;63774;45.292;11.784;2022-11-15T08:05:03;9.30;;;6.10;;
69551;SDS011;63774;45.292;11.784;2022-11-15T08:07:29;9.20;;;6.10;;
69551;SDS011;63774;45.292;11.784;2022-11-15T08:09:56;8.00;;;5.70;;
69551;SDS011;63774;45.292;11.784;2022-11-15T08:12:23;8.40;;;5.80;;
69551;SDS011;63774;45.292;11.784;2022-11-15T08:14:49;7.80;;;5.70;;
69551;SDS011;63774;45.292;11.784;2022-11-15T08:17:14;8.60;;;5.80;;
69551;SDS011;63774;45.292;11.784;2022-11-15T08:19:40;8.30;;;5.80;;
69551;SDS011;63774;45.292;11.784;2022-11-15T08:22:05;8.60;;;5.50;;
69551;SDS011;63774;45.292;11.784;2022-11-15T08:24:32;8.00;;;5.60;;
69551;SDS011;63774;45.292;11.784;2022-11-15T08:26:57;8.90;;;5.90;;
69551;SDS011;63774;45.292;11.784;2022-11-15T08:29:22;7.70;;;5.70;;
69551;SDS011;63774;45.292;11.784;2022-11-15T08:31:48;8.90;;;6.00;;
69551;SDS011;63774;45.292;11.784;2022-11-15T08:34:13;8.00;;;5.80;;
69551;SDS011;63774;45.292;11.784;2022-11-15T08:36:39;7.80;;;5.70;;
69551;SDS011;63774;45.292;11.784;2022-11-15T08:39:04;7.80;;;5.50;;
69551;SDS011;63774;45.292;11.784;2022-11-15T08:41:34;7.90;;;5.80;;
69551;SDS011;63774;45.292;11.784;2022-11-15T08:44:02;9.00;;;5.60;;
69551;SDS011;63774;45.292;11.784;2022-11-15T08:46:27;8.70;;;5.80;;
69551;SDS011;63774;45.292;11.784;2022-11-15T08:48:53;8.10;;;5.60;;
69551;SDS011;63774;45.292;11.784;2022-11-15T08:51:18;8.40;;;5.80;;
69551;SDS011;63774;45.292;11.784;2022-11-15T08:53:44;8.90;;;5.60;;
69551;SDS011;63774;45.292;11.784;2022-11-15T08:56:10;7.50;;;5.20;;
69551;SDS011;63774;45.292;11.784;2022-11-15T08:58:37;7.90;;;5.80;;
69551;SDS011;63774;45.292;11.784;2022-11-15T09:01:03;7.90;;;5.50;;
69551;SDS011;63774;45.292;11.784;2022-11-15T09:03:29;8.50;;;5.90;;
69551;SDS011;63774;45.292;11.784;2022-11-15T09:05:55;7.60;;;5.40;;
69551;SDS011;63774;45.292;11.784;2022-11-15T09:08:22;8.10;;;5.60;;
69551;SDS011;63774;45.292;11.784;2022-11-15T09:10:48;7.00;;;5.20;;
69551;SDS011;63774;45.292;11.784;2022-11-15T09:13:13;8.30;;;5.80;;
69551;SDS011;63774;45.292;11.784;2022-11-15T09:15:38;8.00;;;5.60;;
69551;SDS011;63774;45.292;11.784;2022-11-15T09:18:04;7.70;;;5.70;;
69551;SDS011;63774;45.292;11.784;2022-11-15T09:20:31;9.60;;;5.70;;
69551;SDS011;63774;45.292;11.784;2022-11-15T09:23:03;7.60;;;5.20;;
69551;SDS011;63774;45.292;11.784;2022-11-15T09:25:29;7.90;;;5.50;;
69551;SDS011;63774;45.292;11.784;2022-11-15T09:27:55;8.10;;;5.80;;
69551;SDS011;63774;45.292;11.784;2022-11-15T09:30:22;8.00;;;5.60;;
69551;SDS011;63774;45.292;11.784;2022-11-15T09:32:48;7.90;;;5.30;;
69551;SDS011;63774;45.292;11.784;2022-11-15T09:35:14;7.80;;;5.70;;
69551;SDS011;63774;45.292;11.784;2022-11-15T09:37:40;7.10;;;5.50;;
69551;SDS011;63774;45.292;11.784;2022-11-15T09:40:06;6.80;;;5.10;;
69551;SDS011;63774;45.292;11.784;2022-11-15T09:45:28;6.80;;;5.40;;
69551;SDS011;63774;45.292;11.784;2022-11-15T09:48:02;7.60;;;5.50;;
69551;SDS011;63774;45.292;11.784;2022-11-15T09:50:36;6.90;;;5.30;;
69551;SDS011;63774;45.292;11.784;2022-11-15T09:53:13;7.80;;;5.40;;
69551;SDS011;63774;45.292;11.784;2022-11-15T10:04:39;7.60;;;5.60;;
69551;SDS011;63774;45.292;11.784;2022-11-15T10:12:56;7.20;;;5.20;;
69551;SDS011;63774;45.292;11.784;2022-11-15T10:15:22;6.90;;;5.40;;
69551;SDS011;63774;45.292;11.784;2022-11-15T10:20:25;7.70;;;5.70;;
69551;SDS011;63774;45.292;11.784;2022-11-15T10:22:54;7.20;;;5.00;;
69551;SDS011;63774;45.292;11.784;2022-11-15T10:25:26;7.60;;;5.30;;
69551;SDS011;63774;45.292;11.784;2022-11-15T10:30:20;8.50;;;5.80;;
69551;SDS011;63774;45.292;11.784;2022-11-15T10:32:47;7.80;;;5.50;;
69551;SDS011;63774;45.292;11.784;2022-11-15T10:35:24;8.30;;;5.90;;
69551;SDS011;63774;45.292;11.784;2022-11-15T10:38:05;7.80;;;5.50;;
69551;SDS011;63774;45.292;11.784;2022-11-15T10:40:33;7.10;;;5.40;;
69551;SDS011;63774;45.292;11.784;2022-11-15T10:45:34;8.60;;;6.00;;
69551;SDS011;63774;45.292;11.784;2022-11-15T10:48:22;8.00;;;5.70;;
69551;SDS011;63774;45.292;11.784;2022-11-15T10:50:48;7.70;;;5.80;;
69551;SDS011;63774;45.292;11.784;2022-11-15T10:53:36;7.70;;;5.70;;
69551;SDS011;63774;45.292;11.784;2022-11-15T10:56:12;8.10;;;6.00;;
69551;SDS011;63774;45.292;11.784;2022-11-15T10:58:43;7.70;;;5.80;;
69551;SDS011;63774;45.292;11.784;2022-11-15T11:01:19;8.30;;;6.00;;
69551;SDS011;63774;45.292;11.784;2022-11-15T11:04:00;9.70;;;6.00;;
69551;SDS011;63774;45.292;11.784;2022-11-15T11:06:30;8.20;;;6.10;;
69551;SDS011;63774;45.292;11.784;2022-11-15T11:09:04;8.80;;;5.90;;
69551;SDS011;63774;45.292;11.784;2022-11-15T11:11:52;8.40;;;6.00;;
69551;SDS011;63774;45.292;11.784;2022-11-15T11:19:56;8.80;;;6.30;;
69551;SDS011;63774;45.292;11.784;2022-11-15T11:25:34;8.60;;;6.20;;
69551;SDS011;63774;45.292;11.784;2022-11-15T11:33:24;9.70;;;6.70;;
69551;SDS011;63774;45.292;11.784;2022-11-15T11:36:02;8.10;;;5.70;;
69551;SDS011;63774;45.292;11.784;2022-11-15T11:38:49;8.40;;;6.30;;
69551;SDS011;63774;45.292;11.784;2022-11-15T11:41:37;9.90;;;6.70;;
69551;SDS011;63774;45.292;11.784;2022-11-15T11:44:24;9.30;;;6.70;;
69551;SDS011;63774;45.292;11.784;2022-11-15T11:47:09;9.10;;;6.70;;
69551;SDS011;63774;45.292;11.784;2022-11-15T12:00:37;9.80;;;6.90;;
69551;SDS011;63774;45.292;11.784;2022-11-15T12:03:42;10.10;;;6.70;;
69551;SDS011;63774;45.292;11.784;2022-11-15T12:09:11;8.50;;;6.40;;
69551;SDS011;63774;45.292;11.784;2022-11-15T12:12:03;9.90;;;6.90;;
69551;SDS011;63774;45.292;11.784;2022-11-15T12:17:08;10.10;;;7.20;;
69551;SDS011;63774;45.292;11.784;2022-11-15T12:19:36;10.20;;;7.10;;
69551;SDS011;63774;45.292;11.784;2022-11-15T12:27:32;9.80;;;7.10;;
69551;SDS011;63774;45.292;11.784;2022-11-15T12:30:04;9.80;;;6.40;;
69551;SDS011;63774;45.292;11.784;2022-11-15T12:32:37;9.60;;;6.30;;
69551;SDS011;63774;45.292;11.784;2022-11-15T12:35:05;9.10;;;6.60;;
69551;SDS011;63774;45.292;11.784;2022-11-15T12:37:50;8.50;;;6.50;;
69551;SDS011;63774;45.292;11.784;2022-11-15T12:43:02;9.20;;;6.40;;
69551;SDS011;63774;45.292;11.784;2022-11-15T12:45:33;10.50;;;6.70;;
69551;SDS011;63774;45.292;11.784;2022-11-15T12:56:09;9.90;;;6.70;;
69551;SDS011;63774;45.292;11.784;2022-11-15T12:58:55;9.70;;;6.70;;
69551;SDS011;63774;45.292;11.784;2022-11-15T13:06:46;8.60;;;6.10;;
69551;SDS011;63774;45.292;11.784;2022-11-15T13:11:57;10.00;;;6.70;;
69551;SDS011;63774;45.292;11.784;2022-11-15T13:19:48;9.50;;;6.30;;
69551;SDS011;63774;45.292;11.784;2022-11-15T13:22:18;9.80;;;6.50;;
69551;SDS011;63774;45.292;11.784;2022-11-15T13:25:02;8.80;;;6.20;;
69551;SDS011;63774;45.292;11.784;2022-11-15T13:27:28;8.80;;;6.70;;
69551;SDS011;63774;45.292;11.784;2022-11-15T13:29:54;8.80;;;5.70;;
69551;SDS011;63774;45.292;11.784;2022-11-15T13:32:20;9.60;;;6.30;;
69551;SDS011;63774;45.292;11.784;2022-11-15T13:34:47;10.10;;;6.30;;
69551;SDS011;63774;45.292;11.784;2022-11-15T13:39:46;11.20;;;7.10;;
69551;SDS011;63774;45.292;11.784;2022-11-15T13:42:14;8.10;;;6.10;;
69551;SDS011;63774;45.292;11.784;2022-11-15T13:44:41;8.50;;;6.10;;
69551;SDS011;63774;45.292;11.784;2022-11-15T13:47:20;9.20;;;6.40;;
69551;SDS011;63774;45.292;11.784;2022-11-15T13:49:46;8.00;;;5.90;;
69551;SDS011;63774;45.292;11.784;2022-11-15T13:52:12;8.30;;;5.90;;
69551;SDS011;63774;45.292;11.784;2022-11-15T13:57:16;9.00;;;5.90;;
69551;SDS011;63774;45.292;11.784;2022-11-15T13:59:50;8.90;;;6.10;;
69551;SDS011;63774;45.292;11.784;2022-11-15T14:02:19;9.70;;;6.10;;
69551;SDS011;63774;45.292;11.784;2022-11-15T14:04:56;8.40;;;5.90;;
69551;SDS011;63774;45.292;11.784;2022-11-15T14:07:26;8.90;;;6.30;;
69551;SDS011;63774;45.292;11.784;2022-11-15T14:09:53;8.20;;;6.00;;
69551;SDS011;63774;45.292;11.784;2022-11-15T14:12:26;8.10;;;6.10;;
69551;SDS011;63774;45.292;11.784;2022-11-15T14:14:56;8.30;;;5.80;;
69551;SDS011;63774;45.292;11.784;2022-11-15T14:19:54;7.50;;;5.60;;
69551;SDS011;63774;45.292;11.784;2022-11-15T14:22:21;9.10;;;6.00;;
69551;SDS011;63774;45.292;11.784;2022-11-15T14:25:04;8.40;;;6.10;;
69551;SDS011;63774;45.292;11.784;2022-11-15T14:27:32;8.60;;;6.20;;
69551;SDS011;63774;45.292;11.784;2022-11-15T14:29:59;9.50;;;5.90;;
69551;SDS011;63774;45.292;11.784;2022-11-15T14:32:25;7.60;;;5.60;;
69551;SDS011;63774;45.292;11.784;2022-11-15T14:35:02;9.80;;;6.00;;
69551;SDS011;63774;45.292;11.784;2022-11-15T14:37:32;8.30;;;5.90;;
69551;SDS011;63774;45.292;11.784;2022-11-15T14:40:03;7.90;;;5.90;;
69551;SDS011;63774;45.292;11.784;2022-11-15T14:42:30;8.30;;;6.10;;
69551;SDS011;63774;45.292;11.784;2022-11-15T14:44:56;7.90;;;5.50;;
69551;SDS011;63774;45.292;11.784;2022-11-15T14:47:22;11.00;;;6.10;;
69551;SDS011;63774;45.292;11.784;2022-11-15T14:49:47;9.10;;;6.20;;
69551;SDS011;63774;45.292;11.784;2022-11-15T14:52:32;8.40;;;5.80;;
69551;SDS011;63774;45.292;11.784;2022-11-15T14:55:00;8.30;;;5.80;;
69551;SDS011;63774;45.292;11.784;2022-11-15T14:57:28;9.20;;;6.00;;
69551;SDS011;63774;45.292;11.784;2022-11-15T14:59:54;10.10;;;6.60;;
69551;SDS011;63774;45.292;11.784;2022-11-15T15:02:20;9.90;;;6.10;;
69551;SDS011;63774;45.292;11.784;2022-11-15T15:04:48;9.30;;;6.00;;
69551;SDS011;63774;45.292;11.784;2022-11-15T15:07:14;9.60;;;6.30;;
69551;SDS011;63774;45.292;11.784;2022-11-15T15:09:40;8.00;;;6.00;;
69551;SDS011;63774;45.292;11.784;2022-11-15T15:12:22;8.40;;;5.90;;
69551;SDS011;63774;45.292;11.784;2022-11-15T15:14:49;8.40;;;6.10;;
69551;SDS011;63774;45.292;11.784;2022-11-15T15:17:15;8.40;;;6.10;;
69551;SDS011;63774;45.292;11.784;2022-11-15T15:19:42;9.70;;;6.00;;
69551;SDS011;63774;45.292;11.784;2022-11-15T15:22:13;8.80;;;6.00;;
69551;SDS011;63774;45.292;11.784;2022-11-15T15:24:40;9.00;;;6.50;;
69551;SDS011;63774;45.292;11.784;2022-11-15T15:27:06;10.10;;;5.80;;
69551;SDS011;63774;45.292;11.784;2022-11-15T15:29:31;9.20;;;6.20;;
69551;SDS011;63774;45.292;11.784;2022-11-15T15:31:57;9.20;;;6.50;;
69551;SDS011;63774;45.292;11.784;2022-11-15T15:34:22;9.00;;;6.50;;
69551;SDS011;63774;45.292;11.784;2022-11-15T15:36:48;8.40;;;6.20;;
69551;SDS011;63774;45.292;11.784;2022-11-15T15:39:13;9.60;;;6.50;;
69551;SDS011;63774;45.292;11.784;2022-11-15T15:41:39;9.30;;;6.00;;
69551;SDS011;63774;45.292;11.784;2022-11-15T15:44:04;7.70;;;6.20;;
69551;SDS011;63774;45.292;11.784;2022-11-15T15:46:29;8.00;;;5.80;;
69551;SDS011;63774;45.292;11.784;2022-11-15T15:48:55;10.00;;;6.40;;
69551;SDS011;63774;45.292;11.784;2022-11-15T15:51:20;9.20;;;6.40;;
69551;SDS011;63774;45.292;11.784;2022-11-15T15:53:46;8.70;;;6.40;;
69551;SDS011;63774;45.292;11.784;2022-11-15T15:56:12;7.80;;;5.90;;
69551;SDS011;63774;45.292;11.784;2022-11-15T15:58:38;9.80;;;6.20;;
69551;SDS011;63774;45.292;11.784;2022-11-15T16:01:03;8.70;;;6.20;;
69551;SDS011;63774;45.292;11.784;2022-11-15T16:03:29;8.40;;;6.00;;
69551;SDS011;63774;45.292;11.784;2022-11-15T16:05:55;9.20;;;6.60;;
69551;SDS011;63774;45.292;11.784;2022-11-15T16:08:21;8.90;;;6.40;;
69551;SDS011;63774;45.292;11.784;2022-11-15T16:10:49;64.50;;;12.80;;
69551;SDS011;63774;45.292;11.784;2022-11-15T16:13:15;26.50;;;8.90;;
69551;SDS011;63774;45.292;11.784;2022-11-15T16:15:40;15.10;;;7.30;;
69551;SDS011;63774;45.292;11.784;2022-11-15T16:18:09;20.40;;;8.00;;
69551;SDS011;63774;45.292;11.784;2022-11-15T16:20:41;19.00;;;8.00;;
69551;SDS011;63774;45.292;11.784;2022-11-15T16:23:19;14.60;;;7.40;;
69551;SDS011;63774;45.292;11.784;2022-11-15T16:25:48;17.00;;;7.60;;
69551;SDS011;63774;45.292;11.784;2022-11-15T16:28:19;15.90;;;7.80;;
69551;SDS011;63774;45.292;11.784;2022-11-15T16:30:47;17.30;;;7.60;;
69551;SDS011;63774;45.292;11.784;2022-11-15T16:33:13;16.40;;;7.80;;
69551;SDS011;63774;45.292;11.784;2022-11-15T16:35:39;15.30;;;7.30;;
69551;SDS011;63774;45.292;11.784;2022-11-15T16:38:04;15.60;;;7.20;;
69551;SDS011;63774;45.292;11.784;2022-11-15T16:40:33;14.20;;;7.40;;
69551;SDS011;63774;45.292;11.784;2022-11-15T16:43:00;15.40;;;6.80;;